sensor_id;sensor_type;location;lat;lon;timestamp;pressure;altitude;pressure_sealevel;temperature;humidity
70954;BME280;58618;47.490;8.736;2023-04-15T00:01:43;95590.28;;;1.63;100.00
70954;BME280;58618;47.490;8.736;2023-04-15T00:04:30;95584.44;;;1.41;100.00
70954;BME280;58618;47.490;8.736;2023-04-15T00:07:19;95580.19;;;1.24;100.00
70954;BME280;58618;47.490;8.736;2023-04-15T00:10:07;95589.34;;;1.25;100.00
70954;BME280;58618;47.490;8.736;2023-04-15T00:12:55;95585.56;;;1.28;100.00
70954;BME280;58618;47.490;8.736;2023-04-15T00:15:42;95580.19;;;1.24;100.00
70954;BME280;58618;47.490;8.736;2023-04-15T00:18:29;95583.13;;;1.16;100.00
70954;BME280;58618;47.490;8.736;2023-04-15T00:21:17;95588.56;;;1.03;100.00
70954;BME280;58618;47.490;8.736;2023-04-15T00:24:05;95589.97;;;0.94;100.00
70954;BME280;58618;47.490;8.736;2023-04-15T00:26:53;95591.97;;;0.92;100.00
70954;BME280;58618;47.490;8.736;2023-04-15T00:29:40;95583.41;;;0.98;100.00
70954;BME280;58618;47.490;8.736;2023-04-15T00:32:28;95588.56;;;1.03;100.00
70954;BME280;58618;47.490;8.736;2023-04-15T00:35:16;95579.22;;;1.09;100.00
70954;BME280;58618;47.490;8.736;2023-04-15T00:38:04;95581.94;;;1.02;100.00
70954;BME280;58618;47.490;8.736;2023-04-15T00:40:53;95581.47;;;1.05;100.00
70954;BME280;58618;47.490;8.736;2023-04-15T00:43:41;95574.13;;;0.87;100.00
70954;BME280;58618;47.490;8.736;2023-04-15T00:46:29;95575.06;;;0.81;100.00
70954;BME280;58618;47.490;8.736;2023-04-15T00:49:17;95571.38;;;0.72;100.00
70954;BME280;58618;47.490;8.736;2023-04-15T00:52:05;95577.38;;;0.66;100.00
70954;BME280;58618;47.490;8.736;2023-04-15T00:54:52;95571.31;;;0.67;100.00
70954;BME280;58618;47.490;8.736;2023-04-15T00:57:41;95578.13;;;0.83;100.00
70954;BME280;58618;47.490;8.736;2023-04-15T01:00:28;95583.78;;;0.90;100.00
70954;BME280;58618;47.490;8.736;2023-04-15T01:03:16;95586.03;;;0.87;100.00
70954;BME280;58618;47.490;8.736;2023-04-15T01:06:04;95582.59;;;0.76;100.00
70954;BME280;58618;47.490;8.736;2023-04-15T01:08:51;95582.75;;;0.69;100.00
70954;BME280;58618;47.490;8.736;2023-04-15T01:11:39;95588.47;;;0.60;100.00
70954;BME280;58618;47.490;8.736;2023-04-15T01:14:28;95583.22;;;0.50;100.00
70954;BME280;58618;47.490;8.736;2023-04-15T01:17:15;95584.63;;;0.40;100.00
70954;BME280;58618;47.490;8.736;2023-04-15T01:20:05;95590.16;;;0.37;100.00
70954;BME280;58618;47.490;8.736;2023-04-15T01:22:55;95591.41;;;0.52;100.00
70954;BME280;58618;47.490;8.736;2023-04-15T01:25:44;95570.81;;;0.31;100.00
70954;BME280;58618;47.490;8.736;2023-04-15T01:28:32;95588.31;;;0.50;100.00
70954;BME280;58618;47.490;8.736;2023-04-15T01:31:19;95594.00;;;0.40;100.00
70954;BME280;58618;47.490;8.736;2023-04-15T01:34:07;95584.16;;;0.60;100.00
70954;BME280;58618;47.490;8.736;2023-04-15T01:36:54;95589.78;;;0.62;100.00
70954;BME280;58618;47.490;8.736;2023-04-15T01:39:41;95588.16;;;0.56;100.00
70954;BME280;58618;47.490;8.736;2023-04-15T01:42:31;95586.31;;;0.52;100.00
70954;BME280;58618;47.490;8.736;2023-04-15T01:45:18;95599.53;;;0.54;100.00
70954;BME280;58618;47.490;8.736;2023-04-15T01:48:06;95599.22;;;0.67;100.00
70954;BME280;58618;47.490;8.736;2023-04-15T01:50:54;95596.13;;;0.65;100.00
70954;BME280;58618;47.490;8.736;2023-04-15T01:53:43;95596.75;;;0.72;100.00
70954;BME280;58618;47.490;8.736;2023-04-15T01:56:30;95601.44;;;0.80;100.00
70954;BME280;58618;47.490;8.736;2023-04-15T01:59:20;95600.56;;;0.91;100.00
70954;BME280;58618;47.490;8.736;2023-04-15T02:02:07;95593.28;;;0.95;100.00
70954;BME280;58618;47.490;8.736;2023-04-15T02:04:55;95587.94;;;0.96;100.00
70954;BME280;58618;47.490;8.736;2023-04-15T02:07:43;95594.47;;;1.09;100.00
70954;BME280;58618;47.490;8.736;2023-04-15T02:10:30;95595.25;;;1.09;100.00
70954;BME280;58618;47.490;8.736;2023-04-15T02:13:18;95586.69;;;1.15;100.00
70954;BME280;58618;47.490;8.736;2023-04-15T02:16:15;95592.81;;;1.19;100.00
70954;BME280;58618;47.490;8.736;2023-04-15T02:19:03;95595.66;;;1.45;100.00
70954;BME280;58618;47.490;8.736;2023-04-15T02:21:50;95594.28;;;1.59;100.00
70954;BME280;58618;47.490;8.736;2023-04-15T02:24:37;95592.34;;;1.66;100.00
70954;BME280;58618;47.490;8.736;2023-04-15T02:27:25;95591.66;;;1.76;100.00
70954;BME280;58618;47.490;8.736;2023-04-15T02:30:13;95593.16;;;1.72;100.00
70954;BME280;58618;47.490;8.736;2023-04-15T02:33:02;95596.22;;;1.95;100.00
70954;BME280;58618;47.490;8.736;2023-04-15T02:35:49;95594.34;;;2.18;100.00
70954;BME280;58618;47.490;8.736;2023-04-15T02:38:38;95598.66;;;2.17;100.00
70954;BME280;58618;47.490;8.736;2023-04-15T02:41:27;95599.50;;;2.23;100.00
70954;BME280;58618;47.490;8.736;2023-04-15T02:44:15;95587.84;;;2.27;100.00
70954;BME280;58618;47.490;8.736;2023-04-15T02:47:05;95604.72;;;2.38;100.00
70954;BME280;58618;47.490;8.736;2023-04-15T02:49:53;95599.19;;;2.46;100.00
70954;BME280;58618;47.490;8.736;2023-04-15T02:52:41;95602.06;;;2.60;100.00
70954;BME280;58618;47.490;8.736;2023-04-15T02:55:29;95596.16;;;2.54;100.00
70954;BME280;58618;47.490;8.736;2023-04-15T02:58:16;95594.09;;;2.46;100.00
70954;BME280;58618;47.490;8.736;2023-04-15T03:01:04;95587.22;;;2.46;100.00
70954;BME280;58618;47.490;8.736;2023-04-15T03:03:52;95593.16;;;2.57;100.00
70954;BME280;58618;47.490;8.736;2023-04-15T03:06:41;95594.97;;;2.62;100.00
70954;BME280;58618;47.490;8.736;2023-04-15T03:09:28;95599.25;;;2.56;100.00
70954;BME280;58618;47.490;8.736;2023-04-15T03:12:15;95601.78;;;2.56;100.00
70954;BME280;58618;47.490;8.736;2023-04-15T03:15:03;95597.38;;;2.41;100.00
70954;BME280;58618;47.490;8.736;2023-04-15T03:17:51;95598.44;;;2.50;100.00
70954;BME280;58618;47.490;8.736;2023-04-15T03:20:39;95591.16;;;2.59;100.00
70954;BME280;58618;47.490;8.736;2023-04-15T03:23:29;95600.78;;;2.57;100.00
70954;BME280;58618;47.490;8.736;2023-04-15T03:26:24;95595.78;;;2.67;100.00
70954;BME280;58618;47.490;8.736;2023-04-15T03:29:12;95587.09;;;2.63;100.00
70954;BME280;58618;47.490;8.736;2023-04-15T03:31:59;95583.00;;;2.62;100.00
70954;BME280;58618;47.490;8.736;2023-04-15T03:34:46;95578.16;;;2.61;100.00
70954;BME280;58618;47.490;8.736;2023-04-15T03:37:34;95582.13;;;2.83;100.00
70954;BME280;58618;47.490;8.736;2023-04-15T03:40:23;95592.25;;;2.73;100.00
70954;BME280;58618;47.490;8.736;2023-04-15T03:43:10;95588.69;;;2.74;100.00
70954;BME280;58618;47.490;8.736;2023-04-15T03:45:57;95581.19;;;2.94;100.00
70954;BME280;58618;47.490;8.736;2023-04-15T03:48:45;95569.22;;;2.95;100.00
70954;BME280;58618;47.490;8.736;2023-04-15T03:51:33;95589.84;;;2.98;100.00
70954;BME280;58618;47.490;8.736;2023-04-15T03:54:20;95577.06;;;2.88;100.00
70954;BME280;58618;47.490;8.736;2023-04-15T03:57:09;95592.44;;;3.04;100.00
70954;BME280;58618;47.490;8.736;2023-04-15T03:59:56;95590.41;;;3.06;100.00
70954;BME280;58618;47.490;8.736;2023-04-15T04:02:44;95593.91;;;2.94;100.00
70954;BME280;58618;47.490;8.736;2023-04-15T04:05:31;95588.38;;;3.08;100.00
70954;BME280;58618;47.490;8.736;2023-04-15T04:08:22;95592.94;;;3.01;100.00
70954;BME280;58618;47.490;8.736;2023-04-15T04:11:09;95593.94;;;3.00;100.00
70954;BME280;58618;47.490;8.736;2023-04-15T04:13:58;95593.66;;;2.96;100.00
70954;BME280;58618;47.490;8.736;2023-04-15T04:16:45;95591.44;;;3.10;100.00
70954;BME280;58618;47.490;8.736;2023-04-15T04:19:32;95587.38;;;3.14;100.00
70954;BME280;58618;47.490;8.736;2023-04-15T04:22:21;95589.00;;;3.30;100.00
70954;BME280;58618;47.490;8.736;2023-04-15T04:25:09;95588.97;;;3.25;100.00
70954;BME280;58618;47.490;8.736;2023-04-15T04:27:56;95584.84;;;3.19;100.00
70954;BME280;58618;47.490;8.736;2023-04-15T04:30:45;95586.88;;;3.12;100.00
70954;BME280;58618;47.490;8.736;2023-04-15T04:33:33;95597.56;;;3.14;100.00
70954;BME280;58618;47.490;8.736;2023-04-15T04:36:20;95595.47;;;3.01;100.00
70954;BME280;58618;47.490;8.736;2023-04-15T04:39:07;95589.84;;;2.98;100.00
70954;BME280;58618;47.490;8.736;2023-04-15T04:41:55;95598.78;;;3.01;100.00
70954;BME280;58618;47.490;8.736;2023-04-15T04:44:42;95602.34;;;3.00;100.00
70954;BME280;58618;47.490;8.736;2023-04-15T04:47:31;95599.50;;;2.96;100.00
70954;BME280;58618;47.490;8.736;2023-04-15T04:50:18;95601.63;;;3.10;100.00
70954;BME280;58618;47.490;8.736;2023-04-15T04:53:05;95605.78;;;3.26;100.00
70954;BME280;58618;47.490;8.736;2023-04-15T04:55:52;95600.22;;;3.34;100.00
70954;BME280;58618;47.490;8.736;2023-04-15T04:58:40;95607.38;;;3.37;100.00
70954;BME280;58618;47.490;8.736;2023-04-15T05:01:27;95614.03;;;3.43;100.00
70954;BME280;58618;47.490;8.736;2023-04-15T05:04:16;95608.91;;;3.38;100.00
70954;BME280;58618;47.490;8.736;2023-04-15T05:07:03;95607.84;;;3.34;100.00
70954;BME280;58618;47.490;8.736;2023-04-15T05:09:52;95609.94;;;3.42;100.00
70954;BME280;58618;47.490;8.736;2023-04-15T05:12:39;95609.47;;;3.55;100.00
70954;BME280;58618;47.490;8.736;2023-04-15T05:15:26;95609.97;;;3.52;100.00
70954;BME280;58618;47.490;8.736;2023-04-15T05:18:22;95613.16;;;3.85;100.00
70954;BME280;58618;47.490;8.736;2023-04-15T05:21:26;95613.16;;;3.85;100.00
70954;BME280;58618;47.490;8.736;2023-04-15T05:24:16;95622.59;;;3.94;100.00
70954;BME280;58618;47.490;8.736;2023-04-15T05:27:03;95623.16;;;4.11;100.00
70954;BME280;58618;47.490;8.736;2023-04-15T05:29:51;95623.94;;;4.12;100.00
70954;BME280;58618;47.490;8.736;2023-04-15T05:32:38;95628.00;;;4.18;100.00
70954;BME280;58618;47.490;8.736;2023-04-15T05:35:26;95633.09;;;4.08;100.00
70954;BME280;58618;47.490;8.736;2023-04-15T05:38:14;95629.03;;;4.12;100.00
70954;BME280;58618;47.490;8.736;2023-04-15T05:41:02;95627.00;;;4.24;100.00
70954;BME280;58618;47.490;8.736;2023-04-15T05:43:50;95624.22;;;4.51;100.00
70954;BME280;58618;47.490;8.736;2023-04-15T05:46:37;95625.50;;;4.58;100.00
70954;BME280;58618;47.490;8.736;2023-04-15T05:49:24;95631.63;;;4.57;100.00
70954;BME280;58618;47.490;8.736;2023-04-15T05:52:12;95623.44;;;4.65;100.00
70954;BME280;58618;47.490;8.736;2023-04-15T05:55:01;95617.03;;;4.98;100.00
70954;BME280;58618;47.490;8.736;2023-04-15T05:57:48;95627.03;;;4.85;100.00
70954;BME280;58618;47.490;8.736;2023-04-15T06:00:35;95624.69;;;4.98;100.00
70954;BME280;58618;47.490;8.736;2023-04-15T06:03:23;95621.81;;;5.35;95.62
70954;BME280;58618;47.490;8.736;2023-04-15T06:06:10;95621.84;;;5.20;95.22
70954;BME280;58618;47.490;8.736;2023-04-15T06:08:58;95622.50;;;5.56;98.39
70954;BME280;58618;47.490;8.736;2023-04-15T06:11:47;95621.09;;;5.89;92.38
70954;BME280;58618;47.490;8.736;2023-04-15T06:14:34;95616.94;;;6.03;94.24
70954;BME280;58618;47.490;8.736;2023-04-15T06:17:21;95613.63;;;6.42;89.49
70954;BME280;58618;47.490;8.736;2023-04-15T06:20:10;95623.88;;;6.42;85.42
70954;BME280;58618;47.490;8.736;2023-04-15T06:22:58;95620.88;;;6.29;86.15
70954;BME280;58618;47.490;8.736;2023-04-15T06:25:45;95613.34;;;6.77;88.11
70954;BME280;58618;47.490;8.736;2023-04-15T06:28:34;95617.34;;;6.88;87.81
70954;BME280;58618;47.490;8.736;2023-04-15T06:31:21;95609.22;;;6.81;88.17
70954;BME280;58618;47.490;8.736;2023-04-15T06:34:08;95616.91;;;6.81;87.25
70954;BME280;58618;47.490;8.736;2023-04-15T06:36:56;95609.75;;;7.31;83.71
70954;BME280;58618;47.490;8.736;2023-04-15T06:39:43;95617.06;;;7.18;86.82
70954;BME280;58618;47.490;8.736;2023-04-15T06:42:31;95609.44;;;7.37;83.25
70954;BME280;58618;47.490;8.736;2023-04-15T06:45:20;95615.84;;;7.82;81.17
70954;BME280;58618;47.490;8.736;2023-04-15T06:48:07;95617.66;;;8.00;80.31
70954;BME280;58618;47.490;8.736;2023-04-15T06:50:55;95614.88;;;8.16;81.57
70954;BME280;58618;47.490;8.736;2023-04-15T06:53:43;95618.63;;;8.61;76.67
70954;BME280;58618;47.490;8.736;2023-04-15T06:56:30;95614.81;;;8.39;79.77
70954;BME280;58618;47.490;8.736;2023-04-15T06:59:18;95625.00;;;8.63;77.76
70954;BME280;58618;47.490;8.736;2023-04-15T07:02:10;95613.47;;;8.93;77.29
70954;BME280;58618;47.490;8.736;2023-04-15T07:04:58;95615.00;;;9.08;79.22
70954;BME280;58618;47.490;8.736;2023-04-15T07:07:45;95619.47;;;8.56;76.70
70954;BME280;58618;47.490;8.736;2023-04-15T07:10:33;95612.94;;;9.23;74.25
70954;BME280;58618;47.490;8.736;2023-04-15T07:13:20;95617.88;;;9.47;70.93
70954;BME280;58618;47.490;8.736;2023-04-15T07:16:07;95608.91;;;9.31;69.75
70954;BME280;58618;47.490;8.736;2023-04-15T07:18:56;95605.84;;;9.15;74.08
70954;BME280;58618;47.490;8.736;2023-04-15T07:21:43;95611.00;;;8.69;72.19
70954;BME280;58618;47.490;8.736;2023-04-15T07:24:30;95608.25;;;8.66;72.96
70954;BME280;58618;47.490;8.736;2023-04-15T07:27:18;95608.28;;;8.28;73.55
70954;BME280;58618;47.490;8.736;2023-04-15T07:30:06;95598.91;;;8.19;74.30
70954;BME280;58618;47.490;8.736;2023-04-15T07:32:54;95609.88;;;8.43;74.11
70954;BME280;58618;47.490;8.736;2023-04-15T07:35:43;95608.34;;;8.42;74.53
70954;BME280;58618;47.490;8.736;2023-04-15T07:38:31;95620.50;;;8.55;74.20
70954;BME280;58618;47.490;8.736;2023-04-15T07:41:18;95615.78;;;7.87;78.25
70954;BME280;58618;47.490;8.736;2023-04-15T07:44:06;95617.84;;;7.85;78.34
70954;BME280;58618;47.490;8.736;2023-04-15T07:46:53;95622.78;;;8.00;79.11
70954;BME280;58618;47.490;8.736;2023-04-15T07:49:41;95614.09;;;7.96;77.70
70954;BME280;58618;47.490;8.736;2023-04-15T07:52:30;95611.19;;;8.22;78.14
70954;BME280;58618;47.490;8.736;2023-04-15T07:55:24;95623.56;;;8.38;78.16
70954;BME280;58618;47.490;8.736;2023-04-15T07:58:11;95619.16;;;8.58;82.75
70954;BME280;58618;47.490;8.736;2023-04-15T08:00:58;95617.50;;;8.48;80.06
70954;BME280;58618;47.490;8.736;2023-04-15T08:03:47;95620.81;;;8.67;78.70
70954;BME280;58618;47.490;8.736;2023-04-15T08:06:34;95623.22;;;8.45;77.75
70954;BME280;58618;47.490;8.736;2023-04-15T08:09:23;95619.78;;;8.68;77.20
70954;BME280;58618;47.490;8.736;2023-04-15T08:12:10;95610.75;;;8.52;77.60
70954;BME280;58618;47.490;8.736;2023-04-15T08:14:58;95617.78;;;8.65;78.77
70954;BME280;58618;47.490;8.736;2023-04-15T08:17:46;95620.19;;;8.57;79.96
70954;BME280;58618;47.490;8.736;2023-04-15T08:20:33;95619.69;;;8.73;78.07
70954;BME280;58618;47.490;8.736;2023-04-15T08:23:21;95616.13;;;8.88;77.22
70954;BME280;58618;47.490;8.736;2023-04-15T08:26:09;95623.53;;;8.89;78.79
70954;BME280;58618;47.490;8.736;2023-04-15T08:28:57;95622.81;;;9.16;78.29
70954;BME280;58618;47.490;8.736;2023-04-15T08:31:44;95624.38;;;8.71;77.86
70954;BME280;58618;47.490;8.736;2023-04-15T08:34:32;95629.50;;;8.71;79.26
70954;BME280;58618;47.490;8.736;2023-04-15T08:37:19;95628.13;;;8.93;78.79
70954;BME280;58618;47.490;8.736;2023-04-15T08:40:09;95628.84;;;8.79;79.65
70954;BME280;58618;47.490;8.736;2023-04-15T08:42:59;95619.81;;;9.55;77.26
70954;BME280;58618;47.490;8.736;2023-04-15T08:45:47;95626.28;;;9.39;76.16
70954;BME280;58618;47.490;8.736;2023-04-15T08:48:37;95618.47;;;9.71;74.09
70954;BME280;58618;47.490;8.736;2023-04-15T08:51:26;95625.88;;;9.73;75.07
70954;BME280;58618;47.490;8.736;2023-04-15T08:54:13;95625.03;;;10.27;76.72
70954;BME280;58618;47.490;8.736;2023-04-15T08:57:01;95614.50;;;10.82;71.62
70954;BME280;58618;47.490;8.736;2023-04-15T08:59:51;95625.00;;;11.16;70.47
70954;BME280;58618;47.490;8.736;2023-04-15T09:02:39;95611.31;;;11.07;69.26
70954;BME280;58618;47.490;8.736;2023-04-15T09:05:30;95599.41;;;11.37;68.06
70954;BME280;58618;47.490;8.736;2023-04-15T09:08:18;95617.22;;;11.08;67.77
70954;BME280;58618;47.490;8.736;2023-04-15T09:11:05;95610.78;;;11.27;69.03
70954;BME280;58618;47.490;8.736;2023-04-15T09:13:53;95623.47;;;11.94;68.70
70954;BME280;58618;47.490;8.736;2023-04-15T09:16:58;95623.31;;;11.99;66.78
70954;BME280;58618;47.490;8.736;2023-04-15T09:19:45;95626.25;;;12.41;63.70
70954;BME280;58618;47.490;8.736;2023-04-15T09:22:33;95639.31;;;12.18;65.36
70954;BME280;58618;47.490;8.736;2023-04-15T09:25:25;95638.00;;;11.33;72.99
70954;BME280;58618;47.490;8.736;2023-04-15T09:28:13;95637.00;;;12.17;67.71
70954;BME280;58618;47.490;8.736;2023-04-15T09:31:01;95639.91;;;12.50;68.72
70954;BME280;58618;47.490;8.736;2023-04-15T09:33:54;95639.53;;;13.11;63.63
70954;BME280;58618;47.490;8.736;2023-04-15T09:36:53;95641.25;;;12.99;63.14
70954;BME280;58618;47.490;8.736;2023-04-15T09:39:50;95640.63;;;12.93;61.42
70954;BME280;58618;47.490;8.736;2023-04-15T09:42:53;95645.56;;;12.35;64.84
70954;BME280;58618;47.490;8.736;2023-04-15T09:45:46;95641.50;;;11.37;67.16
70954;BME280;58618;47.490;8.736;2023-04-15T09:48:35;95647.31;;;11.82;65.78
70954;BME280;58618;47.490;8.736;2023-04-15T09:51:33;95650.34;;;11.84;66.73
70954;BME280;58618;47.490;8.736;2023-04-15T09:54:21;95650.56;;;12.57;65.06
70954;BME280;58618;47.490;8.736;2023-04-15T09:57:08;95652.91;;;11.76;66.06
70954;BME280;58618;47.490;8.736;2023-04-15T09:59:57;95643.53;;;11.97;64.38
70954;BME280;58618;47.490;8.736;2023-04-15T10:02:46;95642.63;;;11.93;65.23
70954;BME280;58618;47.490;8.736;2023-04-15T10:05:35;95647.97;;;12.05;63.75
70954;BME280;58618;47.490;8.736;2023-04-15T10:08:27;95650.72;;;12.35;63.67
70954;BME280;58618;47.490;8.736;2023-04-15T10:11:16;95651.19;;;12.37;63.58
70954;BME280;58618;47.490;8.736;2023-04-15T10:14:05;95648.69;;;13.56;59.04
70954;BME280;58618;47.490;8.736;2023-04-15T10:16:55;95641.84;;;13.89;55.92
70954;BME280;58618;47.490;8.736;2023-04-15T10:19:43;95642.22;;;14.00;53.66
70954;BME280;58618;47.490;8.736;2023-04-15T10:22:32;95639.50;;;13.67;55.86
70954;BME280;58618;47.490;8.736;2023-04-15T10:25:21;95642.69;;;13.72;55.78
70954;BME280;58618;47.490;8.736;2023-04-15T10:28:10;95634.63;;;13.94;54.56
70954;BME280;58618;47.490;8.736;2023-04-15T10:30:57;95645.63;;;14.12;55.95
70954;BME280;58618;47.490;8.736;2023-04-15T10:33:46;95646.78;;;14.23;54.38
70954;BME280;58618;47.490;8.736;2023-04-15T10:36:33;95647.81;;;14.31;53.31
70954;BME280;58618;47.490;8.736;2023-04-15T10:39:40;95651.75;;;14.16;55.14
70954;BME280;58618;47.490;8.736;2023-04-15T10:42:34;95650.81;;;13.91;56.13
70954;BME280;58618;47.490;8.736;2023-04-15T10:45:21;95656.09;;;13.36;57.55
70954;BME280;58618;47.490;8.736;2023-04-15T10:48:15;95652.50;;;13.58;57.44
70954;BME280;58618;47.490;8.736;2023-04-15T10:51:02;95657.84;;;14.41;54.87
70954;BME280;58618;47.490;8.736;2023-04-15T10:53:50;95655.34;;;14.24;53.04
70954;BME280;58618;47.490;8.736;2023-04-15T10:56:37;95656.47;;;14.35;52.74
70954;BME280;58618;47.490;8.736;2023-04-15T10:59:28;95658.06;;;13.77;52.91
70954;BME280;58618;47.490;8.736;2023-04-15T11:02:15;95660.81;;;14.02;53.38
70954;BME280;58618;47.490;8.736;2023-04-15T11:05:03;95663.91;;;14.66;52.67
70954;BME280;58618;47.490;8.736;2023-04-15T11:07:52;95665.53;;;14.70;56.24
70954;BME280;58618;47.490;8.736;2023-04-15T11:10:50;95664.53;;;14.84;52.92
70954;BME280;58618;47.490;8.736;2023-04-15T11:13:47;95670.84;;;13.82;56.64
70954;BME280;58618;47.490;8.736;2023-04-15T11:16:42;95648.94;;;13.71;58.27
70954;BME280;58618;47.490;8.736;2023-04-15T11:19:37;95664.38;;;14.18;50.83
70954;BME280;58618;47.490;8.736;2023-04-15T11:22:24;95676.00;;;13.53;54.81
70954;BME280;58618;47.490;8.736;2023-04-15T11:25:21;95690.75;;;13.61;54.10
70954;BME280;58618;47.490;8.736;2023-04-15T11:28:09;95691.38;;;13.49;56.80
70954;BME280;58618;47.490;8.736;2023-04-15T11:30:57;95689.78;;;13.28;54.88
70954;BME280;58618;47.490;8.736;2023-04-15T11:33:53;95696.94;;;13.22;57.07
70954;BME280;58618;47.490;8.736;2023-04-15T11:36:42;95697.22;;;13.38;56.05
70954;BME280;58618;47.490;8.736;2023-04-15T11:39:29;95698.03;;;13.13;57.02
70954;BME280;58618;47.490;8.736;2023-04-15T11:42:17;95699.56;;;13.98;51.96
70954;BME280;58618;47.490;8.736;2023-04-15T11:45:08;95710.44;;;14.21;51.93
70954;BME280;58618;47.490;8.736;2023-04-15T11:48:04;95701.97;;;13.74;54.65
70954;BME280;58618;47.490;8.736;2023-04-15T11:50:54;95716.06;;;13.93;56.35
70954;BME280;58618;47.490;8.736;2023-04-15T11:53:43;95725.69;;;13.38;57.13
70954;BME280;58618;47.490;8.736;2023-04-15T11:56:30;95721.88;;;13.52;55.69
70954;BME280;58618;47.490;8.736;2023-04-15T11:59:18;95726.06;;;13.10;58.28
70954;BME280;58618;47.490;8.736;2023-04-15T12:02:10;95726.19;;;13.31;53.86
70954;BME280;58618;47.490;8.736;2023-04-15T12:05:03;95740.00;;;13.44;56.64
70954;BME280;58618;47.490;8.736;2023-04-15T12:07:58;95730.13;;;13.46;56.80
70954;BME280;58618;47.490;8.736;2023-04-15T12:10:45;95740.91;;;13.57;58.66
70954;BME280;58618;47.490;8.736;2023-04-15T12:13:33;95742.28;;;13.54;56.30
70954;BME280;58618;47.490;8.736;2023-04-15T12:16:21;95743.69;;;14.19;52.94
70954;BME280;58618;47.490;8.736;2023-04-15T12:19:11;95734.91;;;14.41;50.80
70954;BME280;58618;47.490;8.736;2023-04-15T12:22:00;95735.38;;;14.34;50.55
70954;BME280;58618;47.490;8.736;2023-04-15T12:24:53;95750.78;;;14.10;55.56
70954;BME280;58618;47.490;8.736;2023-04-15T12:27:50;95746.97;;;13.69;52.23
70954;BME280;58618;47.490;8.736;2023-04-15T12:30:47;95760.94;;;13.85;55.82
70954;BME280;58618;47.490;8.736;2023-04-15T12:33:36;95766.06;;;14.03;58.76
70954;BME280;58618;47.490;8.736;2023-04-15T12:36:24;95762.31;;;14.50;56.13
70954;BME280;58618;47.490;8.736;2023-04-15T12:39:11;95768.88;;;13.80;58.85
70954;BME280;58618;47.490;8.736;2023-04-15T12:42:00;95766.34;;;13.63;61.69
70954;BME280;58618;47.490;8.736;2023-04-15T12:44:48;95777.59;;;14.14;55.89
70954;BME280;58618;47.490;8.736;2023-04-15T12:47:35;95780.69;;;14.07;57.33
70954;BME280;58618;47.490;8.736;2023-04-15T12:50:22;95786.19;;;13.50;58.87
70954;BME280;58618;47.490;8.736;2023-04-15T12:53:10;95787.84;;;13.55;59.79
70954;BME280;58618;47.490;8.736;2023-04-15T12:55:59;95790.97;;;13.86;57.72
70954;BME280;58618;47.490;8.736;2023-04-15T12:58:47;95797.03;;;13.99;56.93
70954;BME280;58618;47.490;8.736;2023-04-15T13:01:35;95803.75;;;13.36;60.48
70954;BME280;58618;47.490;8.736;2023-04-15T13:04:22;95807.81;;;13.54;62.68
70954;BME280;58618;47.490;8.736;2023-04-15T13:07:09;95803.88;;;13.05;64.54
70954;BME280;58618;47.490;8.736;2023-04-15T13:09:58;95811.31;;;12.98;63.77
70954;BME280;58618;47.490;8.736;2023-04-15T13:12:47;95803.59;;;13.16;62.16
70954;BME280;58618;47.490;8.736;2023-04-15T13:15:36;95812.84;;;12.82;63.91
70954;BME280;58618;47.490;8.736;2023-04-15T13:18:23;95818.78;;;12.91;65.04
70954;BME280;58618;47.490;8.736;2023-04-15T13:21:11;95822.22;;;12.61;64.49
70954;BME280;58618;47.490;8.736;2023-04-15T13:23:59;95828.38;;;12.25;63.89
70954;BME280;58618;47.490;8.736;2023-04-15T13:26:46;95827.31;;;12.26;64.47
70954;BME280;58618;47.490;8.736;2023-04-15T13:29:34;95824.78;;;12.04;66.88
70954;BME280;58618;47.490;8.736;2023-04-15T13:32:22;95832.41;;;12.09;67.89
70954;BME280;58618;47.490;8.736;2023-04-15T13:35:10;95832.44;;;11.87;69.23
70954;BME280;58618;47.490;8.736;2023-04-15T13:37:57;95842.75;;;12.09;67.34
70954;BME280;58618;47.490;8.736;2023-04-15T13:40:44;95848.19;;;11.99;71.05
70954;BME280;58618;47.490;8.736;2023-04-15T13:43:32;95838.69;;;11.86;67.37
70954;BME280;58618;47.490;8.736;2023-04-15T13:46:19;95846.09;;;11.79;71.06
70954;BME280;58618;47.490;8.736;2023-04-15T13:49:08;95848.84;;;11.82;69.08
70954;BME280;58618;47.490;8.736;2023-04-15T13:51:55;95849.63;;;11.83;70.42
70954;BME280;58618;47.490;8.736;2023-04-15T13:54:43;95860.53;;;11.80;68.66
70954;BME280;58618;47.490;8.736;2023-04-15T13:57:30;95861.81;;;11.91;68.53
70954;BME280;58618;47.490;8.736;2023-04-15T14:00:18;95866.56;;;11.75;69.08
70954;BME280;58618;47.490;8.736;2023-04-15T14:03:05;95864.09;;;11.70;71.27
70954;BME280;58618;47.490;8.736;2023-04-15T14:05:54;95868.59;;;11.65;70.65
70954;BME280;58618;47.490;8.736;2023-04-15T14:08:42;95868.59;;;11.42;70.53
70954;BME280;58618;47.490;8.736;2023-04-15T14:11:30;95866.84;;;11.29;72.09
70954;BME280;58618;47.490;8.736;2023-04-15T14:14:17;95874.25;;;11.44;72.32
70954;BME280;58618;47.490;8.736;2023-04-15T14:17:05;95883.44;;;11.37;72.19
70954;BME280;58618;47.490;8.736;2023-04-15T14:19:52;95884.09;;;11.42;72.19
70954;BME280;58618;47.490;8.736;2023-04-15T14:22:40;95896.16;;;11.33;73.63
70954;BME280;58618;47.490;8.736;2023-04-15T14:25:28;95901.22;;;11.38;71.47
70954;BME280;58618;47.490;8.736;2023-04-15T14:28:15;95900.50;;;11.24;71.93
70954;BME280;58618;47.490;8.736;2023-04-15T14:31:02;95904.03;;;11.28;71.12
70954;BME280;58618;47.490;8.736;2023-04-15T14:33:50;95908.50;;;11.36;73.25
70954;BME280;58618;47.490;8.736;2023-04-15T14:36:37;95906.59;;;11.28;71.56
70954;BME280;58618;47.490;8.736;2023-04-15T14:39:26;95908.91;;;11.16;70.86
70954;BME280;58618;47.490;8.736;2023-04-15T14:42:13;95921.16;;;11.24;71.72
70954;BME280;58618;47.490;8.736;2023-04-15T14:45:00;95922.66;;;11.39;71.57
70954;BME280;58618;47.490;8.736;2023-04-15T14:47:48;95935.72;;;11.56;70.73
70954;BME280;58618;47.490;8.736;2023-04-15T14:50:35;95942.28;;;11.76;68.49
70954;BME280;58618;47.490;8.736;2023-04-15T14:53:22;95943.03;;;11.76;69.09
70954;BME280;58618;47.490;8.736;2023-04-15T14:56:12;95955.66;;;11.64;69.91